sensor_id;sensor_type;location;lat;lon;timestamp;P1;durP1;ratioP1;P2;durP2;ratioP2
61038;SDS011;46919;45.816;3.104;2022-10-26T00:02:07;9.73;;;2.28;;
61038;SDS011;46919;45.816;3.104;2022-10-26T00:04:32;10.43;;;2.38;;
61038;SDS011;46919;45.816;3.104;2022-10-26T00:06:57;9.55;;;2.70;;
61038;SDS011;46919;45.816;3.104;2022-10-26T00:09:23;9.73;;;2.42;;
61038;SDS011;46919;45.816;3.104;2022-10-26T00:11:48;6.75;;;2.30;;
61038;SDS011;46919;45.816;3.104;2022-10-26T00:14:14;8.35;;;1.80;;
61038;SDS011;46919;45.816;3.104;2022-10-26T00:16:39;11.15;;;2.42;;
61038;SDS011;46919;45.816;3.104;2022-10-26T00:19:05;6.13;;;2.08;;
61038;SDS011;46919;45.816;3.104;2022-10-26T00:21:30;7.45;;;2.22;;
61038;SDS011;46919;45.816;3.104;2022-10-26T00:23:57;5.65;;;1.90;;
61038;SDS011;46919;45.816;3.104;2022-10-26T00:26:23;9.25;;;2.67;;
61038;SDS011;46919;45.816;3.104;2022-10-26T00:28:51;7.53;;;2.38;;
61038;SDS011;46919;45.816;3.104;2022-10-26T00:31:17;8.15;;;1.67;;
61038;SDS011;46919;45.816;3.104;2022-10-26T00:33:43;8.27;;;1.95;;
61038;SDS011;46919;45.816;3.104;2022-10-26T00:36:09;8.13;;;2.28;;
61038;SDS011;46919;45.816;3.104;2022-10-26T00:38:35;8.63;;;2.22;;
61038;SDS011;46919;45.816;3.104;2022-10-26T00:41:00;6.78;;;2.08;;
61038;SDS011;46919;45.816;3.104;2022-10-26T00:45:51;11.45;;;2.35;;
61038;SDS011;46919;45.816;3.104;2022-10-26T00:48:21;6.13;;;1.90;;
61038;SDS011;46919;45.816;3.104;2022-10-26T00:50:59;9.18;;;2.38;;
61038;SDS011;46919;45.816;3.104;2022-10-26T00:53:30;14.18;;;2.72;;
61038;SDS011;46919;45.816;3.104;2022-10-26T00:55:57;7.57;;;2.72;;
61038;SDS011;46919;45.816;3.104;2022-10-26T00:58:22;9.02;;;2.38;;
61038;SDS011;46919;45.816;3.104;2022-10-26T01:00:50;9.45;;;2.17;;
61038;SDS011;46919;45.816;3.104;2022-10-26T01:03:16;14.80;;;2.22;;
61038;SDS011;46919;45.816;3.104;2022-10-26T01:05:42;7.28;;;2.22;;
61038;SDS011;46919;45.816;3.104;2022-10-26T01:08:09;9.50;;;2.42;;
61038;SDS011;46919;45.816;3.104;2022-10-26T01:10:35;8.93;;;2.25;;
61038;SDS011;46919;45.816;3.104;2022-10-26T01:13:03;6.30;;;2.30;;
61038;SDS011;46919;45.816;3.104;2022-10-26T01:15:36;10.43;;;2.50;;
61038;SDS011;46919;45.816;3.104;2022-10-26T01:26:28;7.75;;;2.00;;
61038;SDS011;46919;45.816;3.104;2022-10-26T01:31:35;7.60;;;2.83;;
61038;SDS011;46919;45.816;3.104;2022-10-26T01:37:10;8.02;;;2.33;;
61038;SDS011;46919;45.816;3.104;2022-10-26T01:42:14;9.25;;;2.42;;
61038;SDS011;46919;45.816;3.104;2022-10-26T01:44:44;6.55;;;2.20;;
61038;SDS011;46919;45.816;3.104;2022-10-26T01:47:13;10.35;;;2.75;;
61038;SDS011;46919;45.816;3.104;2022-10-26T01:49:42;11.55;;;2.75;;
61038;SDS011;46919;45.816;3.104;2022-10-26T01:52:11;7.45;;;2.33;;
61038;SDS011;46919;45.816;3.104;2022-10-26T01:54:38;11.90;;;2.72;;
61038;SDS011;46919;45.816;3.104;2022-10-26T01:57:04;12.70;;;2.67;;
61038;SDS011;46919;45.816;3.104;2022-10-26T01:59:39;12.30;;;2.55;;
61038;SDS011;46919;45.816;3.104;2022-10-26T02:02:24;10.18;;;2.60;;
61038;SDS011;46919;45.816;3.104;2022-10-26T02:10:21;8.95;;;3.08;;
61038;SDS011;46919;45.816;3.104;2022-10-26T02:12:52;9.82;;;2.85;;
61038;SDS011;46919;45.816;3.104;2022-10-26T02:20:48;15.25;;;3.13;;
61038;SDS011;46919;45.816;3.104;2022-10-26T02:23:18;7.03;;;2.35;;
61038;SDS011;46919;45.816;3.104;2022-10-26T02:25:49;14.02;;;2.92;;
61038;SDS011;46919;45.816;3.104;2022-10-26T02:28:21;12.35;;;3.38;;
61038;SDS011;46919;45.816;3.104;2022-10-26T02:30:51;12.40;;;3.15;;
61038;SDS011;46919;45.816;3.104;2022-10-26T02:33:19;7.93;;;2.30;;
61038;SDS011;46919;45.816;3.104;2022-10-26T02:35:47;10.52;;;2.90;;
61038;SDS011;46919;45.816;3.104;2022-10-26T02:38:15;13.13;;;2.72;;
61038;SDS011;46919;45.816;3.104;2022-10-26T02:40:43;7.53;;;2.55;;
61038;SDS011;46919;45.816;3.104;2022-10-26T02:43:12;9.80;;;3.00;;
61038;SDS011;46919;45.816;3.104;2022-10-26T02:45:43;8.05;;;2.63;;
61038;SDS011;46919;45.816;3.104;2022-10-26T02:50:52;13.15;;;2.50;;
61038;SDS011;46919;45.816;3.104;2022-10-26T02:53:30;9.93;;;2.08;;
61038;SDS011;46919;45.816;3.104;2022-10-26T02:56:02;9.52;;;2.67;;
61038;SDS011;46919;45.816;3.104;2022-10-26T02:58:33;12.25;;;2.60;;
61038;SDS011;46919;45.816;3.104;2022-10-26T03:01:05;10.55;;;2.35;;
61038;SDS011;46919;45.816;3.104;2022-10-26T03:03:31;8.32;;;2.60;;
61038;SDS011;46919;45.816;3.104;2022-10-26T03:05:57;9.07;;;2.70;;
61038;SDS011;46919;45.816;3.104;2022-10-26T03:08:22;10.65;;;2.42;;
61038;SDS011;46919;45.816;3.104;2022-10-26T03:10:48;11.40;;;2.80;;
61038;SDS011;46919;45.816;3.104;2022-10-26T03:13:13;9.77;;;2.40;;
61038;SDS011;46919;45.816;3.104;2022-10-26T03:15:39;6.43;;;2.65;;
61038;SDS011;46919;45.816;3.104;2022-10-26T03:18:04;9.98;;;2.63;;
61038;SDS011;46919;45.816;3.104;2022-10-26T03:20:30;11.95;;;2.80;;
61038;SDS011;46919;45.816;3.104;2022-10-26T03:22:56;9.30;;;2.45;;
61038;SDS011;46919;45.816;3.104;2022-10-26T03:25:22;8.15;;;2.88;;
61038;SDS011;46919;45.816;3.104;2022-10-26T03:27:55;11.88;;;2.70;;
61038;SDS011;46919;45.816;3.104;2022-10-26T03:30:24;11.55;;;3.03;;
61038;SDS011;46919;45.816;3.104;2022-10-26T03:32:50;9.82;;;3.00;;
61038;SDS011;46919;45.816;3.104;2022-10-26T03:35:15;10.68;;;3.00;;
61038;SDS011;46919;45.816;3.104;2022-10-26T03:37:41;12.30;;;2.90;;
61038;SDS011;46919;45.816;3.104;2022-10-26T03:40:06;10.98;;;2.80;;
61038;SDS011;46919;45.816;3.104;2022-10-26T03:42:32;10.40;;;2.80;;
61038;SDS011;46919;45.816;3.104;2022-10-26T03:45:00;11.57;;;2.97;;
61038;SDS011;46919;45.816;3.104;2022-10-26T03:47:25;8.80;;;2.72;;
61038;SDS011;46919;45.816;3.104;2022-10-26T03:49:51;7.03;;;2.47;;
61038;SDS011;46919;45.816;3.104;2022-10-26T03:52:16;8.52;;;2.35;;
61038;SDS011;46919;45.816;3.104;2022-10-26T03:54:41;9.70;;;2.75;;
61038;SDS011;46919;45.816;3.104;2022-10-26T03:57:07;9.98;;;2.72;;
61038;SDS011;46919;45.816;3.104;2022-10-26T03:59:32;10.95;;;2.40;;
61038;SDS011;46919;45.816;3.104;2022-10-26T04:01:57;8.30;;;2.38;;
61038;SDS011;46919;45.816;3.104;2022-10-26T04:04:23;5.63;;;2.10;;
61038;SDS011;46919;45.816;3.104;2022-10-26T04:06:48;12.30;;;3.03;;
61038;SDS011;46919;45.816;3.104;2022-10-26T04:09:14;4.15;;;1.85;;
61038;SDS011;46919;45.816;3.104;2022-10-26T04:11:39;5.82;;;2.83;;
61038;SDS011;46919;45.816;3.104;2022-10-26T04:14:04;7.40;;;2.30;;
61038;SDS011;46919;45.816;3.104;2022-10-26T04:16:30;6.53;;;2.60;;
61038;SDS011;46919;45.816;3.104;2022-10-26T04:18:55;5.50;;;1.85;;
61038;SDS011;46919;45.816;3.104;2022-10-26T04:21:20;6.63;;;2.35;;
61038;SDS011;46919;45.816;3.104;2022-10-26T04:23:46;7.82;;;2.53;;
61038;SDS011;46919;45.816;3.104;2022-10-26T04:26:11;7.20;;;2.28;;
61038;SDS011;46919;45.816;3.104;2022-10-26T04:28:37;6.60;;;2.40;;
61038;SDS011;46919;45.816;3.104;2022-10-26T04:31:02;8.07;;;2.20;;
61038;SDS011;46919;45.816;3.104;2022-10-26T04:33:27;12.32;;;2.30;;
61038;SDS011;46919;45.816;3.104;2022-10-26T04:35:57;11.15;;;2.90;;
61038;SDS011;46919;45.816;3.104;2022-10-26T04:38:24;5.65;;;2.35;;
61038;SDS011;46919;45.816;3.104;2022-10-26T04:40:49;12.95;;;3.00;;
61038;SDS011;46919;45.816;3.104;2022-10-26T04:43:15;7.97;;;2.47;;
61038;SDS011;46919;45.816;3.104;2022-10-26T04:45:40;6.82;;;2.50;;
61038;SDS011;46919;45.816;3.104;2022-10-26T04:48:06;7.38;;;2.38;;
61038;SDS011;46919;45.816;3.104;2022-10-26T04:50:34;7.63;;;2.60;;
61038;SDS011;46919;45.816;3.104;2022-10-26T04:53:00;9.00;;;2.90;;
61038;SDS011;46919;45.816;3.104;2022-10-26T04:55:26;6.50;;;2.63;;
61038;SDS011;46919;45.816;3.104;2022-10-26T04:57:51;8.48;;;2.70;;
61038;SDS011;46919;45.816;3.104;2022-10-26T05:00:17;12.40;;;2.60;;
61038;SDS011;46919;45.816;3.104;2022-10-26T05:02:42;4.63;;;2.10;;
61038;SDS011;46919;45.816;3.104;2022-10-26T05:05:08;6.00;;;2.53;;
61038;SDS011;46919;45.816;3.104;2022-10-26T05:07:33;8.98;;;2.20;;
61038;SDS011;46919;45.816;3.104;2022-10-26T05:09:59;7.60;;;2.58;;
61038;SDS011;46919;45.816;3.104;2022-10-26T05:12:24;7.70;;;2.30;;
61038;SDS011;46919;45.816;3.104;2022-10-26T05:14:49;8.02;;;2.08;;
61038;SDS011;46919;45.816;3.104;2022-10-26T05:17:15;7.75;;;2.40;;
61038;SDS011;46919;45.816;3.104;2022-10-26T05:19:40;9.10;;;2.55;;
61038;SDS011;46919;45.816;3.104;2022-10-26T05:22:05;10.80;;;2.65;;
61038;SDS011;46919;45.816;3.104;2022-10-26T05:24:31;7.43;;;2.13;;
61038;SDS011;46919;45.816;3.104;2022-10-26T05:26:56;9.43;;;2.65;;
61038;SDS011;46919;45.816;3.104;2022-10-26T05:29:22;6.03;;;2.38;;
61038;SDS011;46919;45.816;3.104;2022-10-26T05:31:47;5.80;;;2.05;;
61038;SDS011;46919;45.816;3.104;2022-10-26T05:34:12;5.22;;;2.17;;
61038;SDS011;46919;45.816;3.104;2022-10-26T05:36:38;6.07;;;2.50;;
61038;SDS011;46919;45.816;3.104;2022-10-26T05:39:03;8.30;;;2.70;;
61038;SDS011;46919;45.816;3.104;2022-10-26T05:41:29;8.85;;;3.10;;
61038;SDS011;46919;45.816;3.104;2022-10-26T05:43:54;9.93;;;2.40;;
61038;SDS011;46919;45.816;3.104;2022-10-26T05:46:19;8.52;;;2.35;;
61038;SDS011;46919;45.816;3.104;2022-10-26T05:48:45;8.77;;;2.42;;
61038;SDS011;46919;45.816;3.104;2022-10-26T05:51:10;9.40;;;2.42;;
61038;SDS011;46919;45.816;3.104;2022-10-26T05:53:36;8.10;;;2.90;;
61038;SDS011;46919;45.816;3.104;2022-10-26T05:56:02;5.68;;;2.65;;
61038;SDS011;46919;45.816;3.104;2022-10-26T05:58:41;9.40;;;3.13;;
61038;SDS011;46919;45.816;3.104;2022-10-26T06:03:47;7.38;;;2.63;;
61038;SDS011;46919;45.816;3.104;2022-10-26T06:06:13;7.03;;;2.95;;
61038;SDS011;46919;45.816;3.104;2022-10-26T06:08:38;5.35;;;2.20;;
61038;SDS011;46919;45.816;3.104;2022-10-26T06:11:04;9.98;;;4.72;;
61038;SDS011;46919;45.816;3.104;2022-10-26T06:13:31;11.10;;;3.33;;
61038;SDS011;46919;45.816;3.104;2022-10-26T06:21:30;6.18;;;2.33;;
61038;SDS011;46919;45.816;3.104;2022-10-26T06:24:10;10.70;;;2.78;;
61038;SDS011;46919;45.816;3.104;2022-10-26T06:29:57;6.53;;;2.60;;
61038;SDS011;46919;45.816;3.104;2022-10-26T06:32:25;5.40;;;2.45;;
61038;SDS011;46919;45.816;3.104;2022-10-26T06:34:52;5.93;;;2.47;;
61038;SDS011;46919;45.816;3.104;2022-10-26T06:37:43;4.45;;;2.55;;
61038;SDS011;46919;45.816;3.104;2022-10-26T06:40:10;4.88;;;2.45;;
61038;SDS011;46919;45.816;3.104;2022-10-26T06:42:38;9.57;;;2.40;;
61038;SDS011;46919;45.816;3.104;2022-10-26T06:45:04;10.45;;;2.92;;
61038;SDS011;46919;45.816;3.104;2022-10-26T06:47:37;9.07;;;2.55;;
61038;SDS011;46919;45.816;3.104;2022-10-26T06:52:48;8.40;;;2.92;;
61038;SDS011;46919;45.816;3.104;2022-10-26T06:55:21;10.63;;;2.55;;
61038;SDS011;46919;45.816;3.104;2022-10-26T06:57:47;9.73;;;3.35;;
61038;SDS011;46919;45.816;3.104;2022-10-26T07:00:16;8.45;;;3.22;;
61038;SDS011;46919;45.816;3.104;2022-10-26T07:02:46;9.98;;;2.75;;
61038;SDS011;46919;45.816;3.104;2022-10-26T07:05:12;7.20;;;2.72;;
61038;SDS011;46919;45.816;3.104;2022-10-26T07:07:42;11.00;;;3.55;;
61038;SDS011;46919;45.816;3.104;2022-10-26T07:10:09;8.60;;;3.05;;
61038;SDS011;46919;45.816;3.104;2022-10-26T07:12:35;7.95;;;2.90;;
61038;SDS011;46919;45.816;3.104;2022-10-26T07:15:01;7.90;;;2.78;;
61038;SDS011;46919;45.816;3.104;2022-10-26T07:17:27;20.45;;;9.77;;
61038;SDS011;46919;45.816;3.104;2022-10-26T07:19:54;10.85;;;5.10;;
61038;SDS011;46919;45.816;3.104;2022-10-26T07:22:20;11.75;;;3.65;;
61038;SDS011;46919;45.816;3.104;2022-10-26T07:24:45;13.20;;;3.00;;
61038;SDS011;46919;45.816;3.104;2022-10-26T07:27:14;8.88;;;3.10;;
61038;SDS011;46919;45.816;3.104;2022-10-26T07:29:40;6.00;;;2.53;;
61038;SDS011;46919;45.816;3.104;2022-10-26T07:32:06;7.95;;;2.83;;
61038;SDS011;46919;45.816;3.104;2022-10-26T07:34:31;8.07;;;3.40;;
61038;SDS011;46919;45.816;3.104;2022-10-26T07:36:58;8.40;;;2.63;;
61038;SDS011;46919;45.816;3.104;2022-10-26T07:39:23;6.80;;;3.40;;
61038;SDS011;46919;45.816;3.104;2022-10-26T07:41:49;10.15;;;3.38;;
61038;SDS011;46919;45.816;3.104;2022-10-26T07:44:14;12.80;;;5.35;;
61038;SDS011;46919;45.816;3.104;2022-10-26T07:46:40;14.43;;;6.90;;
61038;SDS011;46919;45.816;3.104;2022-10-26T07:49:05;14.20;;;5.70;;
61038;SDS011;46919;45.816;3.104;2022-10-26T07:51:30;16.45;;;4.65;;
61038;SDS011;46919;45.816;3.104;2022-10-26T07:53:56;12.38;;;3.80;;
61038;SDS011;46919;45.816;3.104;2022-10-26T07:56:21;10.98;;;4.28;;
61038;SDS011;46919;45.816;3.104;2022-10-26T07:58:47;11.35;;;4.20;;
61038;SDS011;46919;45.816;3.104;2022-10-26T08:01:13;12.05;;;3.97;;
61038;SDS011;46919;45.816;3.104;2022-10-26T08:03:39;15.05;;;4.25;;
61038;SDS011;46919;45.816;3.104;2022-10-26T08:06:06;15.23;;;4.28;;
61038;SDS011;46919;45.816;3.104;2022-10-26T08:08:33;16.05;;;4.53;;
61038;SDS011;46919;45.816;3.104;2022-10-26T08:10:58;16.05;;;4.70;;
61038;SDS011;46919;45.816;3.104;2022-10-26T08:13:24;13.63;;;4.55;;
61038;SDS011;46919;45.816;3.104;2022-10-26T08:15:49;17.08;;;4.55;;
61038;SDS011;46919;45.816;3.104;2022-10-26T08:18:19;16.02;;;3.83;;
61038;SDS011;46919;45.816;3.104;2022-10-26T08:20:45;14.90;;;3.83;;
61038;SDS011;46919;45.816;3.104;2022-10-26T08:23:10;15.93;;;4.00;;
61038;SDS011;46919;45.816;3.104;2022-10-26T08:25:35;9.20;;;3.08;;
61038;SDS011;46919;45.816;3.104;2022-10-26T08:28:01;12.95;;;3.10;;
61038;SDS011;46919;45.816;3.104;2022-10-26T08:30:28;11.40;;;3.05;;
61038;SDS011;46919;45.816;3.104;2022-10-26T08:33:02;9.27;;;3.28;;
61038;SDS011;46919;45.816;3.104;2022-10-26T08:35:30;13.65;;;3.95;;
61038;SDS011;46919;45.816;3.104;2022-10-26T08:37:56;15.30;;;3.97;;
61038;SDS011;46919;45.816;3.104;2022-10-26T08:40:23;14.35;;;3.58;;
61038;SDS011;46919;45.816;3.104;2022-10-26T08:42:52;8.25;;;3.00;;
61038;SDS011;46919;45.816;3.104;2022-10-26T08:45:43;8.15;;;2.80;;
61038;SDS011;46919;45.816;3.104;2022-10-26T08:48:23;13.68;;;3.08;;
61038;SDS011;46919;45.816;3.104;2022-10-26T08:50:54;9.25;;;2.90;;
61038;SDS011;46919;45.816;3.104;2022-10-26T08:53:30;13.40;;;2.95;;
61038;SDS011;46919;45.816;3.104;2022-10-26T08:56:22;8.32;;;2.70;;
61038;SDS011;46919;45.816;3.104;2022-10-26T08:58:53;6.70;;;2.60;;
61038;SDS011;46919;45.816;3.104;2022-10-26T09:01:22;11.10;;;2.92;;
61038;SDS011;46919;45.816;3.104;2022-10-26T09:03:47;10.63;;;2.70;;
61038;SDS011;46919;45.816;3.104;2022-10-26T09:06:22;9.88;;;2.80;;
61038;SDS011;46919;45.816;3.104;2022-10-26T09:09:06;9.25;;;3.03;;
61038;SDS011;46919;45.816;3.104;2022-10-26T09:22:36;15.13;;;2.70;;
61038;SDS011;46919;45.816;3.104;2022-10-26T09:27:46;10.13;;;2.70;;
61038;SDS011;46919;45.816;3.104;2022-10-26T09:30:17;12.70;;;2.85;;
61038;SDS011;46919;45.816;3.104;2022-10-26T09:32:48;10.98;;;2.88;;
61038;SDS011;46919;45.816;3.104;2022-10-26T09:35:25;10.82;;;2.58;;
61038;SDS011;46919;45.816;3.104;2022-10-26T09:37:54;11.93;;;2.50;;
61038;SDS011;46919;45.816;3.104;2022-10-26T09:40:35;9.38;;;2.53;;
61038;SDS011;46919;45.816;3.104;2022-10-26T09:43:12;12.10;;;2.42;;
61038;SDS011;46919;45.816;3.104;2022-10-26T09:45:45;12.23;;;2.58;;
61038;SDS011;46919;45.816;3.104;2022-10-26T09:48:30;10.85;;;2.80;;
61038;SDS011;46919;45.816;3.104;2022-10-26T09:50:57;11.65;;;4.28;;
61038;SDS011;46919;45.816;3.104;2022-10-26T09:53:24;15.85;;;7.30;;
61038;SDS011;46919;45.816;3.104;2022-10-26T09:55:52;17.50;;;8.48;;
61038;SDS011;46919;45.816;3.104;2022-10-26T09:58:27;20.95;;;8.63;;
61038;SDS011;46919;45.816;3.104;2022-10-26T10:00:55;14.13;;;6.53;;
61038;SDS011;46919;45.816;3.104;2022-10-26T10:03:25;15.23;;;6.88;;
61038;SDS011;46919;45.816;3.104;2022-10-26T10:06:17;17.55;;;5.95;;
61038;SDS011;46919;45.816;3.104;2022-10-26T10:11:42;6.25;;;2.90;;
61038;SDS011;46919;45.816;3.104;2022-10-26T10:14:19;6.80;;;2.72;;
61038;SDS011;46919;45.816;3.104;2022-10-26T10:16:53;9.90;;;3.00;;
61038;SDS011;46919;45.816;3.104;2022-10-26T10:19:21;10.85;;;2.70;;
61038;SDS011;46919;45.816;3.104;2022-10-26T10:21:49;9.93;;;2.55;;
61038;SDS011;46919;45.816;3.104;2022-10-26T10:26:59;14.38;;;2.90;;
61038;SDS011;46919;45.816;3.104;2022-10-26T10:31:58;10.02;;;2.15;;
61038;SDS011;46919;45.816;3.104;2022-10-26T10:34:25;12.45;;;2.33;;
61038;SDS011;46919;45.816;3.104;2022-10-26T10:36:51;6.75;;;2.38;;
61038;SDS011;46919;45.816;3.104;2022-10-26T10:39:32;10.90;;;2.78;;
61038;SDS011;46919;45.816;3.104;2022-10-26T10:42:05;10.07;;;2.58;;
61038;SDS011;46919;45.816;3.104;2022-10-26T10:44:39;9.80;;;2.40;;
61038;SDS011;46919;45.816;3.104;2022-10-26T10:47:13;18.27;;;2.75;;
61038;SDS011;46919;45.816;3.104;2022-10-26T10:49:48;10.80;;;2.35;;
61038;SDS011;46919;45.816;3.104;2022-10-26T10:52:23;11.15;;;2.90;;
61038;SDS011;46919;45.816;3.104;2022-10-26T10:54:52;10.73;;;2.17;;
61038;SDS011;46919;45.816;3.104;2022-10-26T11:00:22;8.15;;;1.98;;
61038;SDS011;46919;45.816;3.104;2022-10-26T11:05:58;10.07;;;1.90;;
61038;SDS011;46919;45.816;3.104;2022-10-26T11:11:32;8.23;;;1.63;;
61038;SDS011;46919;45.816;3.104;2022-10-26T11:14:07;8.38;;;2.20;;
61038;SDS011;46919;45.816;3.104;2022-10-26T11:16:39;7.38;;;1.92;;
61038;SDS011;46919;45.816;3.104;2022-10-26T11:21:50;6.47;;;1.73;;
61038;SDS011;46919;45.816;3.104;2022-10-26T11:26:51;7.25;;;1.77;;
61038;SDS011;46919;45.816;3.104;2022-10-26T11:29:21;6.35;;;1.90;;
61038;SDS011;46919;45.816;3.104;2022-10-26T11:34:43;6.82;;;1.85;;
61038;SDS011;46919;45.816;3.104;2022-10-26T11:37:14;5.10;;;1.83;;
61038;SDS011;46919;45.816;3.104;2022-10-26T11:39:52;10.38;;;2.20;;
61038;SDS011;46919;45.816;3.104;2022-10-26T11:45:21;14.25;;;2.28;;
61038;SDS011;46919;45.816;3.104;2022-10-26T11:48:36;9.70;;;2.45;;
61038;SDS011;46919;45.816;3.104;2022-10-26T11:50:58;10.32;;;2.15;;
61038;SDS011;46919;45.816;3.104;2022-10-26T11:53:25;6.13;;;1.98;;
61038;SDS011;46919;45.816;3.104;2022-10-26T11:55:54;7.60;;;1.85;;
61038;SDS011;46919;45.816;3.104;2022-10-26T11:58:24;5.65;;;2.00;;
61038;SDS011;46919;45.816;3.104;2022-10-26T12:00:59;7.53;;;2.17;;
61038;SDS011;46919;45.816;3.104;2022-10-26T12:03:32;5.68;;;1.60;;
61038;SDS011;46919;45.816;3.104;2022-10-26T12:06:02;8.93;;;1.95;;
61038;SDS011;46919;45.816;3.104;2022-10-26T12:08:40;10.57;;;2.13;;
61038;SDS011;46919;45.816;3.104;2022-10-26T12:11:30;8.60;;;1.80;;
61038;SDS011;46919;45.816;3.104;2022-10-26T12:14:05;10.30;;;2.50;;
61038;SDS011;46919;45.816;3.104;2022-10-26T12:16:53;9.52;;;2.80;;
61038;SDS011;46919;45.816;3.104;2022-10-26T12:22:04;9.38;;;2.60;;
61038;SDS011;46919;45.816;3.104;2022-10-26T12:24:38;8.57;;;1.92;;
61038;SDS011;46919;45.816;3.104;2022-10-26T12:27:28;7.88;;;2.72;;
61038;SDS011;46919;45.816;3.104;2022-10-26T12:37:57;5.78;;;1.90;;
61038;SDS011;46919;45.816;3.104;2022-10-26T12:42:54;7.38;;;2.08;;
61038;SDS011;46919;45.816;3.104;2022-10-26T12:45:20;6.18;;;2.00;;
61038;SDS011;46919;45.816;3.104;2022-10-26T13:06:00;5.25;;;1.50;;
61038;SDS011;46919;45.816;3.104;2022-10-26T13:08:27;9.48;;;1.73;;
61038;SDS011;46919;45.816;3.104;2022-10-26T13:11:06;9.43;;;1.80;;
61038;SDS011;46919;45.816;3.104;2022-10-26T13:13:40;4.57;;;1.33;;
61038;SDS011;46919;45.816;3.104;2022-10-26T13:16:09;3.58;;;1.50;;
61038;SDS011;46919;45.816;3.104;2022-10-26T13:18:42;6.82;;;2.00;;
61038;SDS011;46919;45.816;3.104;2022-10-26T13:21:12;7.82;;;1.95;;
61038;SDS011;46919;45.816;3.104;2022-10-26T13:23:42;7.15;;;2.00;;
61038;SDS011;46919;45.816;3.104;2022-10-26T13:26:22;10.02;;;2.20;;
61038;SDS011;46919;45.816;3.104;2022-10-26T13:28:50;6.45;;;1.63;;
61038;SDS011;46919;45.816;3.104;2022-10-26T13:33:52;10.48;;;1.80;;
61038;SDS011;46919;45.816;3.104;2022-10-26T13:36:30;6.80;;;1.63;;
61038;SDS011;46919;45.816;3.104;2022-10-26T13:39:01;6.05;;;2.00;;
61038;SDS011;46919;45.816;3.104;2022-10-26T13:41:34;9.55;;;1.73;;
61038;SDS011;46919;45.816;3.104;2022-10-26T13:44:02;8.77;;;1.80;;
61038;SDS011;46919;45.816;3.104;2022-10-26T13:46:33;7.13;;;1.63;;
61038;SDS011;46919;45.816;3.104;2022-10-26T13:49:35;7.65;;;1.85;;
61038;SDS011;46919;45.816;3.104;2022-10-26T13:51:55;5.70;;;1.83;;
61038;SDS011;46919;45.816;3.104;2022-10-26T13:57:43;12.88;;;2.58;;
61038;SDS011;46919;45.816;3.104;2022-10-26T14:00:15;9.07;;;2.30;;
61038;SDS011;46919;45.816;3.104;2022-10-26T14:02:44;8.38;;;2.20;;
61038;SDS011;46919;45.816;3.104;2022-10-26T14:05:10;7.93;;;2.63;;
61038;SDS011;46919;45.816;3.104;2022-10-26T14:07:40;9.88;;;2.75;;
61038;SDS011;46919;45.816;3.104;2022-10-26T14:13:05;5.28;;;1.63;;
61038;SDS011;46919;45.816;3.104;2022-10-26T14:15:32;5.85;;;1.90;;
61038;SDS011;46919;45.816;3.104;2022-10-26T14:18:00;9.32;;;2.45;;
61038;SDS011;46919;45.816;3.104;2022-10-26T14:20:27;8.85;;;1.75;;
61038;SDS011;46919;45.816;3.104;2022-10-26T14:22:54;11.95;;;2.10;;
61038;SDS011;46919;45.816;3.104;2022-10-26T14:25:21;9.73;;;2.08;;
61038;SDS011;46919;45.816;3.104;2022-10-26T14:27:52;12.57;;;1.88;;
61038;SDS011;46919;45.816;3.104;2022-10-26T14:30:20;8.15;;;2.03;;
61038;SDS011;46919;45.816;3.104;2022-10-26T14:32:47;6.43;;;1.60;;
61038;SDS011;46919;45.816;3.104;2022-10-26T14:35:13;6.88;;;1.83;;
61038;SDS011;46919;45.816;3.104;2022-10-26T14:37:44;6.18;;;1.27;;
61038;SDS011;46919;45.816;3.104;2022-10-26T14:40:18;4.88;;;1.50;;
61038;SDS011;46919;45.816;3.104;2022-10-26T14:43:10;10.27;;;1.58;;
61038;SDS011;46919;45.816;3.104;2022-10-26T14:45:33;7.82;;;1.50;;
61038;SDS011;46919;45.816;3.104;2022-10-26T14:48:01;6.65;;;1.40;;
61038;SDS011;46919;45.816;3.104;2022-10-26T14:50:27;7.20;;;1.73;;
61038;SDS011;46919;45.816;3.104;2022-10-26T14:53:03;6.38;;;1.20;;
61038;SDS011;46919;45.816;3.104;2022-10-26T14:55:56;4.47;;;1.38;;
61038;SDS011;46919;45.816;3.104;2022-10-26T14:58:25;4.55;;;1.23;;
61038;SDS011;46919;45.816;3.104;2022-10-26T15:04:21;4.32;;;1.10;;
61038;SDS011;46919;45.816;3.104;2022-10-26T15:10:03;5.47;;;1.48;;
61038;SDS011;46919;45.816;3.104;2022-10-26T15:12:04;4.60;;;1.90;;
61038;SDS011;46919;45.816;3.104;2022-10-26T15:14:30;6.72;;;2.33;;
61038;SDS011;46919;45.816;3.104;2022-10-26T15:16:57;5.07;;;2.00;;
61038;SDS011;46919;45.816;3.104;2022-10-26T15:19:23;7.80;;;2.67;;
61038;SDS011;46919;45.816;3.104;2022-10-26T15:21:51;8.63;;;2.65;;
61038;SDS011;46919;45.816;3.104;2022-10-26T15:26:46;9.68;;;2.15;;
61038;SDS011;46919;45.816;3.104;2022-10-26T15:32:26;6.53;;;1.80;;
61038;SDS011;46919;45.816;3.104;2022-10-26T15:37:46;10.10;;;1.75;;
61038;SDS011;46919;45.816;3.104;2022-10-26T15:40:15;5.60;;;1.83;;
61038;SDS011;46919;45.816;3.104;2022-10-26T15:42:41;9.35;;;1.77;;
61038;SDS011;46919;45.816;3.104;2022-10-26T15:47:38;5.35;;;1.80;;
61038;SDS011;46919;45.816;3.104;2022-10-26T15:50:03;8.55;;;1.90;;
61038;SDS011;46919;45.816;3.104;2022-10-26T15:52:30;7.00;;;2.22;;
61038;SDS011;46919;45.816;3.104;2022-10-26T15:54:55;9.57;;;4.75;;
61038;SDS011;46919;45.816;3.104;2022-10-26T15:57:21;6.90;;;3.13;;
61038;SDS011;46919;45.816;3.104;2022-10-26T15:59:48;5.85;;;2.47;;
61038;SDS011;46919;45.816;3.104;2022-10-26T16:02:13;7.13;;;2.40;;
61038;SDS011;46919;45.816;3.104;2022-10-26T16:04:40;5.88;;;2.25;;
61038;SDS011;46919;45.816;3.104;2022-10-26T16:07:07;11.10;;;2.80;;
61038;SDS011;46919;45.816;3.104;2022-10-26T16:09:37;6.05;;;2.65;;
61038;SDS011;46919;45.816;3.104;2022-10-26T16:12:03;7.55;;;2.50;;
61038;SDS011;46919;45.816;3.104;2022-10-26T16:14:29;6.57;;;2.40;;
61038;SDS011;46919;45.816;3.104;2022-10-26T16:16:54;8.55;;;2.90;;
61038;SDS011;46919;45.816;3.104;2022-10-26T16:19:19;5.60;;;2.42;;
61038;SDS011;46919;45.816;3.104;2022-10-26T16:21:45;9.35;;;2.85;;
61038;SDS011;46919;45.816;3.104;2022-10-26T16:24:10;8.90;;;2.50;;
61038;SDS011;46919;45.816;3.104;2022-10-26T16:26:38;8.75;;;2.40;;
61038;SDS011;46919;45.816;3.104;2022-10-26T16:29:04;7.90;;;2.30;;
61038;SDS011;46919;45.816;3.104;2022-10-26T16:31:29;9.15;;;2.85;;
61038;SDS011;46919;45.816;3.104;2022-10-26T16:33:54;7.10;;;2.75;;
61038;SDS011;46919;45.816;3.104;2022-10-26T16:36:20;6.00;;;2.83;;
61038;SDS011;46919;45.816;3.104;2022-10-26T16:38:45;5.65;;;2.63;;
61038;SDS011;46919;45.816;3.104;2022-10-26T16:41:12;11.77;;;3.10;;
61038;SDS011;46919;45.816;3.104;2022-10-26T16:43:42;9.15;;;3.17;;
61038;SDS011;46919;45.816;3.104;2022-10-26T16:46:15;16.10;;;3.20;;
61038;SDS011;46919;45.816;3.104;2022-10-26T16:48:44;11.35;;;3.30;;
61038;SDS011;46919;45.816;3.104;2022-10-26T16:51:18;9.43;;;3.42;;
61038;SDS011;46919;45.816;3.104;2022-10-26T16:53:46;6.22;;;3.17;;
61038;SDS011;46919;45.816;3.104;2022-10-26T16:56:17;9.30;;;3.10;;
61038;SDS011;46919;45.816;3.104;2022-10-26T16:58:46;10.98;;;3.38;;
61038;SDS011;46919;45.816;3.104;2022-10-26T17:01:13;9.20;;;3.47;;
61038;SDS011;46919;45.816;3.104;2022-10-26T17:03:42;8.32;;;3.55;;
61038;SDS011;46919;45.816;3.104;2022-10-26T17:06:08;11.82;;;4.05;;
61038;SDS011;46919;45.816;3.104;2022-10-26T17:08:34;10.20;;;4.30;;
61038;SDS011;46919;45.816;3.104;2022-10-26T17:11:05;13.70;;;5.10;;
61038;SDS011;46919;45.816;3.104;2022-10-26T17:13:34;11.32;;;5.15;;
61038;SDS011;46919;45.816;3.104;2022-10-26T17:16:10;11.52;;;3.90;;
61038;SDS011;46919;45.816;3.104;2022-10-26T17:18:40;8.32;;;3.45;;
61038;SDS011;46919;45.816;3.104;2022-10-26T17:21:07;10.23;;;3.33;;